sensor_id;sensor_type;location;lat;lon;timestamp;P1;durP1;ratioP1;P2;durP2;ratioP2
43620;SDS011;29213;50.770;7.298;2023-04-24T00:01:26;1.55;;;0.90;;
43620;SDS011;29213;50.770;7.298;2023-04-24T00:03:54;2.30;;;0.80;;
43620;SDS011;29213;50.770;7.298;2023-04-24T00:06:19;3.08;;;1.20;;
43620;SDS011;29213;50.770;7.298;2023-04-24T00:08:45;2.05;;;0.80;;
43620;SDS011;29213;50.770;7.298;2023-04-24T00:11:10;1.30;;;0.80;;
43620;SDS011;29213;50.770;7.298;2023-04-24T00:13:36;2.70;;;0.77;;
43620;SDS011;29213;50.770;7.298;2023-04-24T00:16:02;1.33;;;0.73;;
43620;SDS011;29213;50.770;7.298;2023-04-24T00:18:28;2.15;;;0.88;;
43620;SDS011;29213;50.770;7.298;2023-04-24T00:20:53;1.55;;;0.80;;
43620;SDS011;29213;50.770;7.298;2023-04-24T00:23:18;1.40;;;0.80;;
43620;SDS011;29213;50.770;7.298;2023-04-24T00:25:44;1.55;;;0.90;;
43620;SDS011;29213;50.770;7.298;2023-04-24T00:28:09;1.67;;;0.80;;
43620;SDS011;29213;50.770;7.298;2023-04-24T00:30:35;1.38;;;0.77;;
43620;SDS011;29213;50.770;7.298;2023-04-24T00:33:01;1.45;;;0.80;;
43620;SDS011;29213;50.770;7.298;2023-04-24T00:35:26;1.08;;;0.70;;
43620;SDS011;29213;50.770;7.298;2023-04-24T00:37:51;1.50;;;0.77;;
43620;SDS011;29213;50.770;7.298;2023-04-24T00:40:17;1.63;;;0.70;;
43620;SDS011;29213;50.770;7.298;2023-04-24T00:42:43;1.35;;;0.70;;
43620;SDS011;29213;50.770;7.298;2023-04-24T00:45:09;1.60;;;0.85;;
43620;SDS011;29213;50.770;7.298;2023-04-24T00:47:34;1.67;;;0.88;;
43620;SDS011;29213;50.770;7.298;2023-04-24T00:50:01;1.20;;;0.77;;
43620;SDS011;29213;50.770;7.298;2023-04-24T00:52:28;2.25;;;0.90;;
43620;SDS011;29213;50.770;7.298;2023-04-24T00:54:53;1.80;;;0.90;;
43620;SDS011;29213;50.770;7.298;2023-04-24T00:57:19;1.33;;;0.70;;
43620;SDS011;29213;50.770;7.298;2023-04-24T00:59:44;1.05;;;0.60;;
43620;SDS011;29213;50.770;7.298;2023-04-24T01:02:10;1.45;;;0.80;;
43620;SDS011;29213;50.770;7.298;2023-04-24T01:04:37;1.77;;;0.70;;
43620;SDS011;29213;50.770;7.298;2023-04-24T01:07:03;1.88;;;0.90;;
43620;SDS011;29213;50.770;7.298;2023-04-24T01:09:29;1.83;;;0.80;;
43620;SDS011;29213;50.770;7.298;2023-04-24T01:11:55;1.15;;;0.70;;
43620;SDS011;29213;50.770;7.298;2023-04-24T01:14:21;1.70;;;0.80;;
43620;SDS011;29213;50.770;7.298;2023-04-24T01:16:47;1.30;;;0.80;;
43620;SDS011;29213;50.770;7.298;2023-04-24T01:19:12;1.38;;;0.75;;
43620;SDS011;29213;50.770;7.298;2023-04-24T01:21:41;1.73;;;0.70;;
43620;SDS011;29213;50.770;7.298;2023-04-24T01:24:08;2.10;;;0.75;;
43620;SDS011;29213;50.770;7.298;2023-04-24T01:26:33;1.85;;;0.80;;
43620;SDS011;29213;50.770;7.298;2023-04-24T01:28:59;1.50;;;0.80;;
43620;SDS011;29213;50.770;7.298;2023-04-24T01:31:25;1.63;;;0.60;;
43620;SDS011;29213;50.770;7.298;2023-04-24T01:33:51;1.23;;;0.70;;
43620;SDS011;29213;50.770;7.298;2023-04-24T01:36:17;1.35;;;0.63;;
43620;SDS011;29213;50.770;7.298;2023-04-24T01:38:43;2.15;;;0.70;;
43620;SDS011;29213;50.770;7.298;2023-04-24T01:41:08;1.17;;;0.60;;
43620;SDS011;29213;50.770;7.298;2023-04-24T01:43:35;2.78;;;0.70;;
43620;SDS011;29213;50.770;7.298;2023-04-24T01:46:01;0.80;;;0.60;;
43620;SDS011;29213;50.770;7.298;2023-04-24T01:48:26;1.38;;;0.80;;
43620;SDS011;29213;50.770;7.298;2023-04-24T01:50:52;1.27;;;0.63;;
43620;SDS011;29213;50.770;7.298;2023-04-24T01:53:17;1.40;;;0.70;;
43620;SDS011;29213;50.770;7.298;2023-04-24T01:55:42;1.35;;;0.70;;
43620;SDS011;29213;50.770;7.298;2023-04-24T01:58:08;2.47;;;0.90;;
43620;SDS011;29213;50.770;7.298;2023-04-24T02:00:33;1.90;;;1.00;;
43620;SDS011;29213;50.770;7.298;2023-04-24T02:02:59;2.83;;;1.10;;
43620;SDS011;29213;50.770;7.298;2023-04-24T02:05:26;1.45;;;0.93;;
43620;SDS011;29213;50.770;7.298;2023-04-24T02:07:52;1.77;;;0.90;;
43620;SDS011;29213;50.770;7.298;2023-04-24T02:10:17;2.30;;;1.10;;
43620;SDS011;29213;50.770;7.298;2023-04-24T02:12:43;2.45;;;1.10;;
43620;SDS011;29213;50.770;7.298;2023-04-24T02:15:08;2.00;;;1.00;;
43620;SDS011;29213;50.770;7.298;2023-04-24T02:17:34;2.35;;;1.15;;
43620;SDS011;29213;50.770;7.298;2023-04-24T02:20:00;2.22;;;1.02;;
43620;SDS011;29213;50.770;7.298;2023-04-24T02:22:25;2.28;;;1.15;;
43620;SDS011;29213;50.770;7.298;2023-04-24T02:24:50;2.25;;;1.02;;
43620;SDS011;29213;50.770;7.298;2023-04-24T02:27:16;3.15;;;1.20;;
43620;SDS011;29213;50.770;7.298;2023-04-24T02:29:41;2.88;;;1.20;;
43620;SDS011;29213;50.770;7.298;2023-04-24T02:32:06;3.28;;;1.30;;
43620;SDS011;29213;50.770;7.298;2023-04-24T02:34:34;3.13;;;1.20;;
43620;SDS011;29213;50.770;7.298;2023-04-24T02:36:59;3.22;;;1.58;;
43620;SDS011;29213;50.770;7.298;2023-04-24T02:39:25;3.03;;;1.88;;
43620;SDS011;29213;50.770;7.298;2023-04-24T02:41:50;3.40;;;1.92;;
43620;SDS011;29213;50.770;7.298;2023-04-24T02:44:16;3.75;;;2.10;;
43620;SDS011;29213;50.770;7.298;2023-04-24T02:46:42;3.53;;;2.00;;
43620;SDS011;29213;50.770;7.298;2023-04-24T02:49:08;2.90;;;1.80;;
43620;SDS011;29213;50.770;7.298;2023-04-24T02:51:34;2.85;;;1.80;;
43620;SDS011;29213;50.770;7.298;2023-04-24T02:53:59;3.33;;;1.80;;
43620;SDS011;29213;50.770;7.298;2023-04-24T02:56:24;3.28;;;1.85;;
43620;SDS011;29213;50.770;7.298;2023-04-24T02:58:50;3.00;;;2.00;;
43620;SDS011;29213;50.770;7.298;2023-04-24T03:01:15;4.20;;;2.30;;
43620;SDS011;29213;50.770;7.298;2023-04-24T03:03:41;3.30;;;2.13;;
43620;SDS011;29213;50.770;7.298;2023-04-24T03:06:06;4.22;;;2.10;;
43620;SDS011;29213;50.770;7.298;2023-04-24T03:08:33;3.13;;;1.90;;
43620;SDS011;29213;50.770;7.298;2023-04-24T03:10:58;3.92;;;2.20;;
43620;SDS011;29213;50.770;7.298;2023-04-24T03:13:24;5.18;;;2.60;;
43620;SDS011;29213;50.770;7.298;2023-04-24T03:15:49;3.47;;;2.25;;
43620;SDS011;29213;50.770;7.298;2023-04-24T03:18:15;4.95;;;2.42;;
43620;SDS011;29213;50.770;7.298;2023-04-24T03:20:40;4.07;;;2.67;;
43620;SDS011;29213;50.770;7.298;2023-04-24T03:23:05;4.60;;;2.40;;
43620;SDS011;29213;50.770;7.298;2023-04-24T03:25:31;5.07;;;2.55;;
43620;SDS011;29213;50.770;7.298;2023-04-24T03:27:56;3.58;;;2.50;;
43620;SDS011;29213;50.770;7.298;2023-04-24T03:30:21;4.03;;;2.70;;
43620;SDS011;29213;50.770;7.298;2023-04-24T03:32:47;4.75;;;2.50;;
43620;SDS011;29213;50.770;7.298;2023-04-24T03:35:12;5.57;;;2.92;;
43620;SDS011;29213;50.770;7.298;2023-04-24T03:37:38;3.88;;;2.70;;
43620;SDS011;29213;50.770;7.298;2023-04-24T03:40:03;5.85;;;2.75;;
43620;SDS011;29213;50.770;7.298;2023-04-24T03:42:31;4.78;;;2.70;;
43620;SDS011;29213;50.770;7.298;2023-04-24T03:44:56;4.22;;;2.80;;
43620;SDS011;29213;50.770;7.298;2023-04-24T03:47:21;5.13;;;3.13;;
43620;SDS011;29213;50.770;7.298;2023-04-24T03:49:47;4.97;;;3.03;;
43620;SDS011;29213;50.770;7.298;2023-04-24T03:52:12;4.45;;;2.97;;
43620;SDS011;29213;50.770;7.298;2023-04-24T03:54:37;4.18;;;2.78;;
43620;SDS011;29213;50.770;7.298;2023-04-24T03:57:03;5.40;;;3.08;;
43620;SDS011;29213;50.770;7.298;2023-04-24T03:59:29;4.78;;;2.70;;
43620;SDS011;29213;50.770;7.298;2023-04-24T04:01:55;4.30;;;2.70;;
43620;SDS011;29213;50.770;7.298;2023-04-24T04:04:20;4.47;;;2.95;;
43620;SDS011;29213;50.770;7.298;2023-04-24T04:06:46;4.40;;;2.95;;
43620;SDS011;29213;50.770;7.298;2023-04-24T04:09:11;5.80;;;3.10;;
43620;SDS011;29213;50.770;7.298;2023-04-24T04:11:37;6.07;;;2.95;;
43620;SDS011;29213;50.770;7.298;2023-04-24T04:14:02;4.13;;;2.70;;
43620;SDS011;29213;50.770;7.298;2023-04-24T04:16:28;4.35;;;2.90;;
43620;SDS011;29213;50.770;7.298;2023-04-24T04:18:53;4.72;;;3.05;;
43620;SDS011;29213;50.770;7.298;2023-04-24T04:21:19;7.18;;;3.05;;
43620;SDS011;29213;50.770;7.298;2023-04-24T04:23:44;5.60;;;3.08;;
43620;SDS011;29213;50.770;7.298;2023-04-24T04:26:10;5.10;;;3.05;;
43620;SDS011;29213;50.770;7.298;2023-04-24T04:28:36;4.90;;;3.25;;
43620;SDS011;29213;50.770;7.298;2023-04-24T04:31:03;4.93;;;3.00;;
43620;SDS011;29213;50.770;7.298;2023-04-24T04:33:28;4.70;;;3.00;;
43620;SDS011;29213;50.770;7.298;2023-04-24T04:35:53;3.90;;;2.80;;
43620;SDS011;29213;50.770;7.298;2023-04-24T04:38:21;4.78;;;3.00;;
43620;SDS011;29213;50.770;7.298;2023-04-24T04:40:47;5.18;;;3.28;;
43620;SDS011;29213;50.770;7.298;2023-04-24T04:43:13;4.57;;;2.88;;
43620;SDS011;29213;50.770;7.298;2023-04-24T04:45:40;4.22;;;2.90;;
43620;SDS011;29213;50.770;7.298;2023-04-24T04:48:08;4.63;;;2.70;;
43620;SDS011;29213;50.770;7.298;2023-04-24T04:50:34;4.45;;;2.83;;
43620;SDS011;29213;50.770;7.298;2023-04-24T04:53:00;4.18;;;2.90;;
43620;SDS011;29213;50.770;7.298;2023-04-24T04:55:25;5.85;;;3.25;;
43620;SDS011;29213;50.770;7.298;2023-04-24T04:57:51;5.38;;;3.38;;
43620;SDS011;29213;50.770;7.298;2023-04-24T05:00:17;4.57;;;2.85;;
43620;SDS011;29213;50.770;7.298;2023-04-24T05:02:42;4.75;;;3.22;;
43620;SDS011;29213;50.770;7.298;2023-04-24T05:05:08;4.50;;;3.10;;
43620;SDS011;29213;50.770;7.298;2023-04-24T05:07:34;6.22;;;3.20;;
43620;SDS011;29213;50.770;7.298;2023-04-24T05:10:00;4.47;;;3.28;;
43620;SDS011;29213;50.770;7.298;2023-04-24T05:12:25;4.97;;;3.30;;
43620;SDS011;29213;50.770;7.298;2023-04-24T05:14:51;5.07;;;3.25;;
43620;SDS011;29213;50.770;7.298;2023-04-24T05:17:17;6.40;;;3.40;;
43620;SDS011;29213;50.770;7.298;2023-04-24T05:19:42;4.95;;;3.33;;
43620;SDS011;29213;50.770;7.298;2023-04-24T05:22:08;5.18;;;3.10;;
43620;SDS011;29213;50.770;7.298;2023-04-24T05:24:34;6.65;;;3.22;;
43620;SDS011;29213;50.770;7.298;2023-04-24T05:27:01;4.85;;;3.17;;
43620;SDS011;29213;50.770;7.298;2023-04-24T05:29:27;4.30;;;2.78;;
43620;SDS011;29213;50.770;7.298;2023-04-24T05:31:53;5.00;;;3.60;;
43620;SDS011;29213;50.770;7.298;2023-04-24T05:34:18;5.05;;;3.30;;
43620;SDS011;29213;50.770;7.298;2023-04-24T05:36:44;5.18;;;3.50;;
43620;SDS011;29213;50.770;7.298;2023-04-24T05:39:09;5.07;;;3.25;;
43620;SDS011;29213;50.770;7.298;2023-04-24T05:41:35;4.85;;;3.10;;
43620;SDS011;29213;50.770;7.298;2023-04-24T05:44:00;4.95;;;3.17;;
43620;SDS011;29213;50.770;7.298;2023-04-24T05:46:25;4.80;;;2.95;;
43620;SDS011;29213;50.770;7.298;2023-04-24T05:48:51;4.40;;;3.15;;
43620;SDS011;29213;50.770;7.298;2023-04-24T05:51:16;4.43;;;3.00;;
43620;SDS011;29213;50.770;7.298;2023-04-24T05:53:42;5.78;;;3.20;;
43620;SDS011;29213;50.770;7.298;2023-04-24T05:56:07;5.60;;;3.25;;
43620;SDS011;29213;50.770;7.298;2023-04-24T05:58:32;5.43;;;3.28;;
43620;SDS011;29213;50.770;7.298;2023-04-24T06:00:58;5.20;;;3.38;;
43620;SDS011;29213;50.770;7.298;2023-04-24T06:03:25;5.80;;;3.38;;
43620;SDS011;29213;50.770;7.298;2023-04-24T06:05:52;4.97;;;3.10;;
43620;SDS011;29213;50.770;7.298;2023-04-24T06:08:17;4.57;;;3.17;;
43620;SDS011;29213;50.770;7.298;2023-04-24T06:10:43;7.13;;;3.40;;
43620;SDS011;29213;50.770;7.298;2023-04-24T06:13:08;5.28;;;3.38;;
43620;SDS011;29213;50.770;7.298;2023-04-24T06:15:33;5.88;;;3.58;;
43620;SDS011;29213;50.770;7.298;2023-04-24T06:17:59;6.85;;;3.60;;
43620;SDS011;29213;50.770;7.298;2023-04-24T06:20:25;5.88;;;3.13;;
43620;SDS011;29213;50.770;7.298;2023-04-24T06:22:50;5.05;;;3.45;;
43620;SDS011;29213;50.770;7.298;2023-04-24T06:25:16;7.00;;;4.07;;
43620;SDS011;29213;50.770;7.298;2023-04-24T06:27:41;6.32;;;3.28;;
43620;SDS011;29213;50.770;7.298;2023-04-24T06:30:07;4.60;;;3.45;;
43620;SDS011;29213;50.770;7.298;2023-04-24T06:32:33;4.90;;;3.67;;
43620;SDS011;29213;50.770;7.298;2023-04-24T06:34:58;6.22;;;3.65;;
43620;SDS011;29213;50.770;7.298;2023-04-24T06:37:24;5.30;;;3.65;;
43620;SDS011;29213;50.770;7.298;2023-04-24T06:39:49;7.53;;;4.38;;
43620;SDS011;29213;50.770;7.298;2023-04-24T06:42:15;6.70;;;3.53;;
43620;SDS011;29213;50.770;7.298;2023-04-24T06:44:40;5.95;;;3.55;;
43620;SDS011;29213;50.770;7.298;2023-04-24T06:47:09;5.22;;;3.50;;
43620;SDS011;29213;50.770;7.298;2023-04-24T06:49:36;6.30;;;4.40;;
43620;SDS011;29213;50.770;7.298;2023-04-24T06:52:02;5.22;;;3.92;;
43620;SDS011;29213;50.770;7.298;2023-04-24T06:54:28;6.43;;;3.58;;
43620;SDS011;29213;50.770;7.298;2023-04-24T06:56:54;5.07;;;3.92;;
43620;SDS011;29213;50.770;7.298;2023-04-24T06:59:20;5.55;;;3.75;;
43620;SDS011;29213;50.770;7.298;2023-04-24T07:01:46;5.40;;;3.90;;
43620;SDS011;29213;50.770;7.298;2023-04-24T07:04:11;5.88;;;3.78;;
43620;SDS011;29213;50.770;7.298;2023-04-24T07:06:38;4.70;;;3.60;;
43620;SDS011;29213;50.770;7.298;2023-04-24T07:09:04;4.88;;;3.55;;
43620;SDS011;29213;50.770;7.298;2023-04-24T07:11:29;6.30;;;4.00;;
43620;SDS011;29213;50.770;7.298;2023-04-24T07:13:55;5.97;;;4.32;;
43620;SDS011;29213;50.770;7.298;2023-04-24T07:16:21;6.93;;;4.55;;
43620;SDS011;29213;50.770;7.298;2023-04-24T07:18:46;5.70;;;3.95;;
43620;SDS011;29213;50.770;7.298;2023-04-24T07:21:12;6.93;;;4.70;;
43620;SDS011;29213;50.770;7.298;2023-04-24T07:23:37;6.75;;;3.90;;
43620;SDS011;29213;50.770;7.298;2023-04-24T07:26:03;4.85;;;3.83;;
43620;SDS011;29213;50.770;7.298;2023-04-24T07:28:28;5.22;;;3.90;;
43620;SDS011;29213;50.770;7.298;2023-04-24T07:30:57;4.80;;;3.40;;
43620;SDS011;29213;50.770;7.298;2023-04-24T07:33:23;5.05;;;3.72;;
43620;SDS011;29213;50.770;7.298;2023-04-24T07:35:49;6.22;;;3.47;;
43620;SDS011;29213;50.770;7.298;2023-04-24T07:38:15;5.82;;;3.20;;
43620;SDS011;29213;50.770;7.298;2023-04-24T07:40:40;5.55;;;3.42;;
43620;SDS011;29213;50.770;7.298;2023-04-24T07:43:05;4.28;;;3.10;;
43620;SDS011;29213;50.770;7.298;2023-04-24T07:45:31;4.07;;;2.70;;
43620;SDS011;29213;50.770;7.298;2023-04-24T07:47:58;3.95;;;2.95;;
43620;SDS011;29213;50.770;7.298;2023-04-24T07:50:24;5.20;;;3.00;;
43620;SDS011;29213;50.770;7.298;2023-04-24T07:52:49;5.15;;;3.13;;
43620;SDS011;29213;50.770;7.298;2023-04-24T07:55:15;4.20;;;2.97;;
43620;SDS011;29213;50.770;7.298;2023-04-24T07:57:40;3.78;;;2.58;;
43620;SDS011;29213;50.770;7.298;2023-04-24T08:00:06;4.25;;;2.50;;
43620;SDS011;29213;50.770;7.298;2023-04-24T08:02:32;3.38;;;2.10;;
43620;SDS011;29213;50.770;7.298;2023-04-24T08:04:57;3.33;;;1.85;;
43620;SDS011;29213;50.770;7.298;2023-04-24T08:07:23;3.20;;;1.55;;
43620;SDS011;29213;50.770;7.298;2023-04-24T08:09:48;3.40;;;1.70;;
43620;SDS011;29213;50.770;7.298;2023-04-24T08:12:14;5.18;;;1.63;;
43620;SDS011;29213;50.770;7.298;2023-04-24T08:14:39;2.95;;;1.70;;
43620;SDS011;29213;50.770;7.298;2023-04-24T08:17:05;2.78;;;1.60;;
43620;SDS011;29213;50.770;7.298;2023-04-24T08:19:30;3.67;;;1.60;;
43620;SDS011;29213;50.770;7.298;2023-04-24T08:21:56;3.30;;;1.23;;
43620;SDS011;29213;50.770;7.298;2023-04-24T08:24:22;4.15;;;1.30;;
43620;SDS011;29213;50.770;7.298;2023-04-24T08:26:47;3.55;;;1.23;;
43620;SDS011;29213;50.770;7.298;2023-04-24T08:29:16;1.83;;;0.98;;
43620;SDS011;29213;50.770;7.298;2023-04-24T08:31:42;2.35;;;1.10;;
43620;SDS011;29213;50.770;7.298;2023-04-24T08:34:07;2.20;;;1.00;;
43620;SDS011;29213;50.770;7.298;2023-04-24T08:36:32;2.10;;;0.90;;
43620;SDS011;29213;50.770;7.298;2023-04-24T08:38:58;1.70;;;0.90;;
43620;SDS011;29213;50.770;7.298;2023-04-24T08:41:24;2.38;;;1.02;;
43620;SDS011;29213;50.770;7.298;2023-04-24T08:43:53;3.00;;;1.20;;
43620;SDS011;29213;50.770;7.298;2023-04-24T08:46:20;2.88;;;1.20;;
43620;SDS011;29213;50.770;7.298;2023-04-24T08:48:45;3.05;;;1.20;;
43620;SDS011;29213;50.770;7.298;2023-04-24T08:51:11;3.10;;;1.10;;
43620;SDS011;29213;50.770;7.298;2023-04-24T08:53:37;3.10;;;1.10;;
43620;SDS011;29213;50.770;7.298;2023-04-24T08:56:03;3.00;;;1.10;;
43620;SDS011;29213;50.770;7.298;2023-04-24T08:58:29;1.65;;;0.85;;
43620;SDS011;29213;50.770;7.298;2023-04-24T09:00:55;2.83;;;1.10;;
43620;SDS011;29213;50.770;7.298;2023-04-24T09:03:22;2.95;;;1.08;;
43620;SDS011;29213;50.770;7.298;2023-04-24T09:05:48;1.60;;;0.90;;
43620;SDS011;29213;50.770;7.298;2023-04-24T09:08:16;2.05;;;0.95;;
43620;SDS011;29213;50.770;7.298;2023-04-24T09:10:43;3.00;;;1.10;;
43620;SDS011;29213;50.770;7.298;2023-04-24T09:13:09;2.13;;;1.00;;
43620;SDS011;29213;50.770;7.298;2023-04-24T09:15:36;2.70;;;1.00;;
43620;SDS011;29213;50.770;7.298;2023-04-24T09:18:02;2.33;;;1.10;;
43620;SDS011;29213;50.770;7.298;2023-04-24T09:20:28;3.00;;;1.30;;
43620;SDS011;29213;50.770;7.298;2023-04-24T09:22:54;2.70;;;1.30;;
43620;SDS011;29213;50.770;7.298;2023-04-24T09:25:21;2.58;;;1.30;;
43620;SDS011;29213;50.770;7.298;2023-04-24T09:27:47;4.05;;;1.33;;
43620;SDS011;29213;50.770;7.298;2023-04-24T09:30:12;3.00;;;1.30;;
43620;SDS011;29213;50.770;7.298;2023-04-24T09:32:38;2.75;;;1.40;;
43620;SDS011;29213;50.770;7.298;2023-04-24T09:35:07;3.80;;;1.80;;
43620;SDS011;29213;50.770;7.298;2023-04-24T09:37:41;4.47;;;1.70;;
43620;SDS011;29213;50.770;7.298;2023-04-24T09:40:15;3.13;;;1.65;;
43620;SDS011;29213;50.770;7.298;2023-04-24T09:42:44;3.25;;;1.63;;
43620;SDS011;29213;50.770;7.298;2023-04-24T09:45:20;4.68;;;2.13;;
43620;SDS011;29213;50.770;7.298;2023-04-24T09:47:46;3.28;;;1.83;;
43620;SDS011;29213;50.770;7.298;2023-04-24T09:50:16;5.15;;;2.00;;
43620;SDS011;29213;50.770;7.298;2023-04-24T09:52:42;3.70;;;2.00;;
43620;SDS011;29213;50.770;7.298;2023-04-24T09:55:17;4.18;;;2.10;;
43620;SDS011;29213;50.770;7.298;2023-04-24T09:57:54;4.80;;;2.25;;
43620;SDS011;29213;50.770;7.298;2023-04-24T10:00:22;5.80;;;2.00;;
43620;SDS011;29213;50.770;7.298;2023-04-24T10:02:50;11.65;;;4.25;;
43620;SDS011;29213;50.770;7.298;2023-04-24T10:05:17;5.03;;;2.30;;
43620;SDS011;29213;50.770;7.298;2023-04-24T10:07:43;5.18;;;2.30;;
43620;SDS011;29213;50.770;7.298;2023-04-24T10:10:09;3.55;;;2.03;;
43620;SDS011;29213;50.770;7.298;2023-04-24T10:12:35;4.15;;;2.03;;
43620;SDS011;29213;50.770;7.298;2023-04-24T10:15:01;4.25;;;2.33;;
43620;SDS011;29213;50.770;7.298;2023-04-24T10:17:27;3.97;;;1.98;;
43620;SDS011;29213;50.770;7.298;2023-04-24T10:19:54;4.03;;;2.40;;
43620;SDS011;29213;50.770;7.298;2023-04-24T10:22:19;4.30;;;2.20;;
43620;SDS011;29213;50.770;7.298;2023-04-24T10:24:46;4.43;;;2.35;;
43620;SDS011;29213;50.770;7.298;2023-04-24T10:27:12;4.32;;;2.20;;
43620;SDS011;29213;50.770;7.298;2023-04-24T10:29:40;4.00;;;2.40;;
43620;SDS011;29213;50.770;7.298;2023-04-24T10:32:06;5.32;;;2.60;;
43620;SDS011;29213;50.770;7.298;2023-04-24T10:34:32;4.93;;;2.42;;
43620;SDS011;29213;50.770;7.298;2023-04-24T10:36:57;3.75;;;2.33;;
43620;SDS011;29213;50.770;7.298;2023-04-24T10:39:25;4.38;;;2.30;;
43620;SDS011;29213;50.770;7.298;2023-04-24T10:41:51;5.05;;;2.30;;
43620;SDS011;29213;50.770;7.298;2023-04-24T10:44:16;4.95;;;2.20;;
43620;SDS011;29213;50.770;7.298;2023-04-24T10:46:43;4.05;;;2.05;;
43620;SDS011;29213;50.770;7.298;2023-04-24T10:49:17;4.20;;;2.10;;
43620;SDS011;29213;50.770;7.298;2023-04-24T10:51:53;4.72;;;2.22;;
43620;SDS011;29213;50.770;7.298;2023-04-24T10:54:23;4.90;;;2.22;;
43620;SDS011;29213;50.770;7.298;2023-04-24T10:56:50;3.63;;;2.17;;
43620;SDS011;29213;50.770;7.298;2023-04-24T10:59:26;3.67;;;2.10;;
43620;SDS011;29213;50.770;7.298;2023-04-24T11:01:53;4.40;;;1.90;;
43620;SDS011;29213;50.770;7.298;2023-04-24T11:04:29;5.05;;;2.20;;
43620;SDS011;29213;50.770;7.298;2023-04-24T11:06:56;4.85;;;2.30;;
43620;SDS011;29213;50.770;7.298;2023-04-24T11:09:22;6.75;;;2.45;;
43620;SDS011;29213;50.770;7.298;2023-04-24T11:11:51;4.57;;;2.40;;
43620;SDS011;29213;50.770;7.298;2023-04-24T11:14:28;5.22;;;2.50;;
43620;SDS011;29213;50.770;7.298;2023-04-24T11:16:54;6.80;;;2.90;;
43620;SDS011;29213;50.770;7.298;2023-04-24T11:19:24;6.80;;;3.15;;
43620;SDS011;29213;50.770;7.298;2023-04-24T11:29:48;4.15;;;2.53;;
43620;SDS011;29213;50.770;7.298;2023-04-24T11:32:27;6.50;;;2.90;;
43620;SDS011;29213;50.770;7.298;2023-04-24T11:35:15;6.28;;;3.45;;
43620;SDS011;29213;50.770;7.298;2023-04-24T11:37:43;6.80;;;3.45;;
43620;SDS011;29213;50.770;7.298;2023-04-24T11:40:12;5.88;;;3.42;;
43620;SDS011;29213;50.770;7.298;2023-04-24T11:42:41;5.90;;;3.20;;
43620;SDS011;29213;50.770;7.298;2023-04-24T11:45:11;7.93;;;3.15;;
43620;SDS011;29213;50.770;7.298;2023-04-24T11:47:41;7.00;;;3.80;;
43620;SDS011;29213;50.770;7.298;2023-04-24T11:50:08;8.90;;;3.97;;
43620;SDS011;29213;50.770;7.298;2023-04-24T11:52:42;8.55;;;3.80;;
43620;SDS011;29213;50.770;7.298;2023-04-24T11:57:44;8.57;;;3.80;;
43620;SDS011;29213;50.770;7.298;2023-04-24T12:00:18;8.20;;;4.40;;
43620;SDS011;29213;50.770;7.298;2023-04-24T12:02:48;8.30;;;4.20;;
43620;SDS011;29213;50.770;7.298;2023-04-24T12:05:21;10.20;;;4.22;;
43620;SDS011;29213;50.770;7.298;2023-04-24T12:07:48;8.60;;;4.50;;
43620;SDS011;29213;50.770;7.298;2023-04-24T12:10:13;8.13;;;4.05;;
43620;SDS011;29213;50.770;7.298;2023-04-24T12:12:40;7.80;;;4.30;;
43620;SDS011;29213;50.770;7.298;2023-04-24T12:15:08;8.23;;;4.32;;
43620;SDS011;29213;50.770;7.298;2023-04-24T12:17:35;7.10;;;4.28;;
43620;SDS011;29213;50.770;7.298;2023-04-24T12:20:05;9.23;;;4.82;;
43620;SDS011;29213;50.770;7.298;2023-04-24T12:25:23;10.65;;;4.07;;
43620;SDS011;29213;50.770;7.298;2023-04-24T12:27:54;7.55;;;4.20;;
43620;SDS011;29213;50.770;7.298;2023-04-24T12:30:20;9.15;;;4.05;;
43620;SDS011;29213;50.770;7.298;2023-04-24T12:32:51;8.77;;;4.13;;
43620;SDS011;29213;50.770;7.298;2023-04-24T12:35:20;8.75;;;4.20;;
43620;SDS011;29213;50.770;7.298;2023-04-24T12:37:47;8.50;;;4.25;;
43620;SDS011;29213;50.770;7.298;2023-04-24T12:40:12;11.02;;;4.25;;
43620;SDS011;29213;50.770;7.298;2023-04-24T12:42:46;7.03;;;3.63;;
43620;SDS011;29213;50.770;7.298;2023-04-24T12:45:14;6.95;;;3.25;;
43620;SDS011;29213;50.770;7.298;2023-04-24T12:47:40;9.63;;;3.90;;
43620;SDS011;29213;50.770;7.298;2023-04-24T12:50:07;8.38;;;3.78;;
43620;SDS011;29213;50.770;7.298;2023-04-24T12:52:34;6.43;;;3.47;;
43620;SDS011;29213;50.770;7.298;2023-04-24T12:54:59;7.68;;;4.32;;
43620;SDS011;29213;50.770;7.298;2023-04-24T12:57:26;8.15;;;3.80;;
43620;SDS011;29213;50.770;7.298;2023-04-24T12:59:57;7.82;;;4.00;;
43620;SDS011;29213;50.770;7.298;2023-04-24T13:02:27;7.43;;;4.00;;
43620;SDS011;29213;50.770;7.298;2023-04-24T13:04:55;7.38;;;3.90;;
43620;SDS011;29213;50.770;7.298;2023-04-24T13:07:20;6.10;;;3.50;;
43620;SDS011;29213;50.770;7.298;2023-04-24T13:09:47;8.32;;;4.43;;
43620;SDS011;29213;50.770;7.298;2023-04-24T13:12:14;8.60;;;4.13;;
43620;SDS011;29213;50.770;7.298;2023-04-24T13:14:40;8.45;;;4.25;;
43620;SDS011;29213;50.770;7.298;2023-04-24T13:17:05;6.93;;;4.35;;
43620;SDS011;29213;50.770;7.298;2023-04-24T13:19:35;8.38;;;4.25;;
43620;SDS011;29213;50.770;7.298;2023-04-24T13:22:02;7.53;;;3.80;;
43620;SDS011;29213;50.770;7.298;2023-04-24T13:24:28;7.78;;;4.63;;
43620;SDS011;29213;50.770;7.298;2023-04-24T13:26:54;6.20;;;4.50;;
43620;SDS011;29213;50.770;7.298;2023-04-24T13:29:21;7.75;;;4.53;;
43620;SDS011;29213;50.770;7.298;2023-04-24T13:31:47;6.20;;;4.32;;
43620;SDS011;29213;50.770;7.298;2023-04-24T13:34:14;10.82;;;4.63;;
43620;SDS011;29213;50.770;7.298;2023-04-24T13:36:40;7.90;;;4.40;;
43620;SDS011;29213;50.770;7.298;2023-04-24T13:39:05;7.15;;;4.35;;
43620;SDS011;29213;50.770;7.298;2023-04-24T13:41:32;7.25;;;4.00;;
43620;SDS011;29213;50.770;7.298;2023-04-24T13:43:58;9.27;;;5.03;;
43620;SDS011;29213;50.770;7.298;2023-04-24T13:46:23;8.45;;;4.30;;
43620;SDS011;29213;50.770;7.298;2023-04-24T13:48:48;8.55;;;4.22;;
43620;SDS011;29213;50.770;7.298;2023-04-24T13:51:14;6.70;;;3.78;;
43620;SDS011;29213;50.770;7.298;2023-04-24T13:53:39;9.32;;;4.47;;
43620;SDS011;29213;50.770;7.298;2023-04-24T13:56:05;8.43;;;4.93;;
43620;SDS011;29213;50.770;7.298;2023-04-24T13:58:31;8.45;;;4.13;;
43620;SDS011;29213;50.770;7.298;2023-04-24T14:00:57;9.40;;;4.75;;
43620;SDS011;29213;50.770;7.298;2023-04-24T14:03:23;10.85;;;4.85;;
43620;SDS011;29213;50.770;7.298;2023-04-24T14:05:48;9.15;;;4.63;;
43620;SDS011;29213;50.770;7.298;2023-04-24T14:08:14;9.40;;;4.70;;
43620;SDS011;29213;50.770;7.298;2023-04-24T14:10:39;8.95;;;4.82;;
43620;SDS011;29213;50.770;7.298;2023-04-24T14:13:05;6.95;;;4.40;;
43620;SDS011;29213;50.770;7.298;2023-04-24T14:15:31;9.30;;;4.22;;
43620;SDS011;29213;50.770;7.298;2023-04-24T14:17:56;8.52;;;4.45;;
43620;SDS011;29213;50.770;7.298;2023-04-24T14:20:22;9.18;;;4.72;;
43620;SDS011;29213;50.770;7.298;2023-04-24T14:22:48;8.07;;;5.00;;
43620;SDS011;29213;50.770;7.298;2023-04-24T14:25:13;8.43;;;4.63;;
43620;SDS011;29213;50.770;7.298;2023-04-24T14:27:38;9.48;;;4.78;;
43620;SDS011;29213;50.770;7.298;2023-04-24T14:30:05;10.18;;;4.97;;
43620;SDS011;29213;50.770;7.298;2023-04-24T14:32:31;7.88;;;4.35;;
43620;SDS011;29213;50.770;7.298;2023-04-24T14:34:56;10.07;;;4.80;;
43620;SDS011;29213;50.770;7.298;2023-04-24T14:37:22;7.68;;;3.83;;
43620;SDS011;29213;50.770;7.298;2023-04-24T14:39:47;8.35;;;4.07;;
43620;SDS011;29213;50.770;7.298;2023-04-24T14:42:13;8.73;;;3.92;;
43620;SDS011;29213;50.770;7.298;2023-04-24T14:44:38;6.07;;;3.42;;
43620;SDS011;29213;50.770;7.298;2023-04-24T14:47:04;11.48;;;4.78;;
43620;SDS011;29213;50.770;7.298;2023-04-24T14:49:30;7.15;;;4.13;;
43620;SDS011;29213;50.770;7.298;2023-04-24T14:51:56;7.95;;;4.32;;
43620;SDS011;29213;50.770;7.298;2023-04-24T14:54:21;7.35;;;4.22;;
43620;SDS011;29213;50.770;7.298;2023-04-24T14:56:48;7.20;;;4.32;;